sensor_id;sensor_type;location;lat;lon;timestamp;P1;durP1;ratioP1;P2;durP2;ratioP2
49962;SDS011;36180;57.678;11.910;2024-01-06T00:00:55;8.65;;;4.60;;
49962;SDS011;36180;57.678;11.910;2024-01-06T00:03:24;8.82;;;5.22;;
49962;SDS011;36180;57.678;11.910;2024-01-06T00:05:51;10.98;;;5.05;;
49962;SDS011;36180;57.678;11.910;2024-01-06T00:08:18;10.02;;;5.55;;
49962;SDS011;36180;57.678;11.910;2024-01-06T00:10:44;7.70;;;4.75;;
49962;SDS011;36180;57.678;11.910;2024-01-06T00:13:12;10.13;;;5.57;;
49962;SDS011;36180;57.678;11.910;2024-01-06T00:15:38;10.65;;;4.72;;
49962;SDS011;36180;57.678;11.910;2024-01-06T00:18:05;9.75;;;4.97;;
49962;SDS011;36180;57.678;11.910;2024-01-06T00:20:34;11.82;;;5.30;;
49962;SDS011;36180;57.678;11.910;2024-01-06T00:23:01;8.52;;;5.13;;
49962;SDS011;36180;57.678;11.910;2024-01-06T00:25:28;11.73;;;5.10;;
49962;SDS011;36180;57.678;11.910;2024-01-06T00:27:55;11.45;;;5.25;;
49962;SDS011;36180;57.678;11.910;2024-01-06T00:30:22;9.90;;;5.38;;
49962;SDS011;36180;57.678;11.910;2024-01-06T00:32:49;7.05;;;4.30;;
49962;SDS011;36180;57.678;11.910;2024-01-06T00:35:16;7.32;;;4.63;;
49962;SDS011;36180;57.678;11.910;2024-01-06T00:37:44;10.40;;;4.75;;
49962;SDS011;36180;57.678;11.910;2024-01-06T00:40:11;8.63;;;4.93;;
49962;SDS011;36180;57.678;11.910;2024-01-06T00:42:39;8.60;;;4.13;;
49962;SDS011;36180;57.678;11.910;2024-01-06T00:45:06;7.68;;;4.35;;
49962;SDS011;36180;57.678;11.910;2024-01-06T00:47:34;6.65;;;3.90;;
49962;SDS011;36180;57.678;11.910;2024-01-06T00:50:01;7.57;;;4.28;;
49962;SDS011;36180;57.678;11.910;2024-01-06T00:52:28;10.00;;;4.97;;
49962;SDS011;36180;57.678;11.910;2024-01-06T00:54:56;8.90;;;5.28;;
49962;SDS011;36180;57.678;11.910;2024-01-06T00:57:23;6.85;;;4.03;;
49962;SDS011;36180;57.678;11.910;2024-01-06T00:59:50;11.43;;;4.63;;
49962;SDS011;36180;57.678;11.910;2024-01-06T01:02:17;7.28;;;3.97;;
49962;SDS011;36180;57.678;11.910;2024-01-06T01:04:44;9.27;;;4.25;;
49962;SDS011;36180;57.678;11.910;2024-01-06T01:07:11;7.78;;;4.32;;
49962;SDS011;36180;57.678;11.910;2024-01-06T01:09:38;9.25;;;4.60;;
49962;SDS011;36180;57.678;11.910;2024-01-06T01:12:07;7.00;;;4.50;;
49962;SDS011;36180;57.678;11.910;2024-01-06T01:14:34;7.13;;;4.47;;
49962;SDS011;36180;57.678;11.910;2024-01-06T01:17:01;10.48;;;4.40;;
49962;SDS011;36180;57.678;11.910;2024-01-06T01:19:28;8.30;;;4.40;;
49962;SDS011;36180;57.678;11.910;2024-01-06T01:21:55;9.07;;;4.20;;
49962;SDS011;36180;57.678;11.910;2024-01-06T01:24:22;7.78;;;4.00;;
49962;SDS011;36180;57.678;11.910;2024-01-06T01:26:49;10.82;;;4.10;;
49962;SDS011;36180;57.678;11.910;2024-01-06T01:29:17;10.68;;;4.88;;
49962;SDS011;36180;57.678;11.910;2024-01-06T01:31:45;7.50;;;4.10;;
49962;SDS011;36180;57.678;11.910;2024-01-06T01:34:12;7.72;;;4.15;;
49962;SDS011;36180;57.678;11.910;2024-01-06T01:36:39;10.27;;;4.57;;
49962;SDS011;36180;57.678;11.910;2024-01-06T01:39:06;7.97;;;4.20;;
49962;SDS011;36180;57.678;11.910;2024-01-06T01:41:34;7.28;;;4.25;;
49962;SDS011;36180;57.678;11.910;2024-01-06T01:44:00;7.63;;;4.72;;
49962;SDS011;36180;57.678;11.910;2024-01-06T01:46:29;7.65;;;4.38;;
49962;SDS011;36180;57.678;11.910;2024-01-06T01:48:57;10.65;;;5.18;;
49962;SDS011;36180;57.678;11.910;2024-01-06T01:51:26;9.25;;;4.30;;
49962;SDS011;36180;57.678;11.910;2024-01-06T01:53:55;7.93;;;4.10;;
49962;SDS011;36180;57.678;11.910;2024-01-06T01:56:22;6.28;;;3.80;;
49962;SDS011;36180;57.678;11.910;2024-01-06T01:58:50;11.75;;;4.47;;
49962;SDS011;36180;57.678;11.910;2024-01-06T02:01:17;8.85;;;4.43;;
49962;SDS011;36180;57.678;11.910;2024-01-06T02:03:45;8.77;;;4.05;;
49962;SDS011;36180;57.678;11.910;2024-01-06T02:06:12;8.27;;;3.97;;
49962;SDS011;36180;57.678;11.910;2024-01-06T02:08:39;9.90;;;4.35;;
49962;SDS011;36180;57.678;11.910;2024-01-06T02:11:06;6.18;;;4.30;;
49962;SDS011;36180;57.678;11.910;2024-01-06T02:13:33;9.52;;;4.07;;
49962;SDS011;36180;57.678;11.910;2024-01-06T02:16:01;7.15;;;4.13;;
49962;SDS011;36180;57.678;11.910;2024-01-06T02:18:29;7.55;;;4.28;;
49962;SDS011;36180;57.678;11.910;2024-01-06T02:20:58;7.25;;;4.13;;
49962;SDS011;36180;57.678;11.910;2024-01-06T02:23:27;7.25;;;3.92;;
49962;SDS011;36180;57.678;11.910;2024-01-06T02:25:55;6.57;;;3.97;;
49962;SDS011;36180;57.678;11.910;2024-01-06T02:28:22;7.57;;;3.90;;
49962;SDS011;36180;57.678;11.910;2024-01-06T02:30:49;9.43;;;4.22;;
49962;SDS011;36180;57.678;11.910;2024-01-06T02:33:16;7.97;;;4.15;;
49962;SDS011;36180;57.678;11.910;2024-01-06T02:35:44;7.03;;;3.72;;
49962;SDS011;36180;57.678;11.910;2024-01-06T02:38:11;8.23;;;4.07;;
49962;SDS011;36180;57.678;11.910;2024-01-06T02:40:39;6.80;;;3.33;;
49962;SDS011;36180;57.678;11.910;2024-01-06T02:43:07;7.90;;;4.50;;
49962;SDS011;36180;57.678;11.910;2024-01-06T02:45:34;6.20;;;3.70;;
49962;SDS011;36180;57.678;11.910;2024-01-06T02:48:01;9.05;;;3.83;;
49962;SDS011;36180;57.678;11.910;2024-01-06T02:50:29;7.57;;;3.92;;
49962;SDS011;36180;57.678;11.910;2024-01-06T02:52:56;7.30;;;3.67;;
49962;SDS011;36180;57.678;11.910;2024-01-06T02:55:22;6.72;;;3.53;;
49962;SDS011;36180;57.678;11.910;2024-01-06T02:57:51;6.88;;;3.15;;
49962;SDS011;36180;57.678;11.910;2024-01-06T03:00:18;6.32;;;3.22;;
49962;SDS011;36180;57.678;11.910;2024-01-06T03:02:45;6.65;;;3.47;;
49962;SDS011;36180;57.678;11.910;2024-01-06T03:05:12;7.03;;;3.38;;
49962;SDS011;36180;57.678;11.910;2024-01-06T03:07:39;5.57;;;3.25;;
49962;SDS011;36180;57.678;11.910;2024-01-06T03:10:06;5.85;;;3.47;;
49962;SDS011;36180;57.678;11.910;2024-01-06T03:12:33;7.45;;;4.18;;
49962;SDS011;36180;57.678;11.910;2024-01-06T03:15:01;8.27;;;4.30;;
49962;SDS011;36180;57.678;11.910;2024-01-06T03:17:28;7.50;;;3.88;;
49962;SDS011;36180;57.678;11.910;2024-01-06T03:19:56;7.78;;;3.58;;
49962;SDS011;36180;57.678;11.910;2024-01-06T03:22:23;6.97;;;3.75;;
49962;SDS011;36180;57.678;11.910;2024-01-06T03:24:50;7.43;;;3.95;;
49962;SDS011;36180;57.678;11.910;2024-01-06T03:27:17;8.85;;;4.28;;
49962;SDS011;36180;57.678;11.910;2024-01-06T03:29:44;5.57;;;3.50;;
49962;SDS011;36180;57.678;11.910;2024-01-06T03:32:13;5.40;;;3.63;;
49962;SDS011;36180;57.678;11.910;2024-01-06T03:34:40;5.35;;;3.42;;
49962;SDS011;36180;57.678;11.910;2024-01-06T03:37:08;9.48;;;4.32;;
49962;SDS011;36180;57.678;11.910;2024-01-06T03:39:35;7.30;;;3.92;;
49962;SDS011;36180;57.678;11.910;2024-01-06T03:42:02;5.80;;;3.47;;
49962;SDS011;36180;57.678;11.910;2024-01-06T03:44:29;8.75;;;3.70;;
49962;SDS011;36180;57.678;11.910;2024-01-06T03:46:58;8.60;;;3.63;;
49962;SDS011;36180;57.678;11.910;2024-01-06T03:49:27;6.38;;;3.58;;
49962;SDS011;36180;57.678;11.910;2024-01-06T03:51:53;8.00;;;3.95;;
49962;SDS011;36180;57.678;11.910;2024-01-06T03:54:20;8.60;;;3.40;;
49962;SDS011;36180;57.678;11.910;2024-01-06T03:56:47;7.47;;;3.95;;
49962;SDS011;36180;57.678;11.910;2024-01-06T03:59:15;5.80;;;3.72;;
49962;SDS011;36180;57.678;11.910;2024-01-06T04:01:42;6.43;;;3.72;;
49962;SDS011;36180;57.678;11.910;2024-01-06T04:04:09;5.65;;;3.13;;
49962;SDS011;36180;57.678;11.910;2024-01-06T04:06:37;5.22;;;3.50;;
49962;SDS011;36180;57.678;11.910;2024-01-06T04:09:04;5.35;;;3.35;;
49962;SDS011;36180;57.678;11.910;2024-01-06T04:11:31;7.82;;;3.60;;
49962;SDS011;36180;57.678;11.910;2024-01-06T04:13:58;4.75;;;3.20;;
49962;SDS011;36180;57.678;11.910;2024-01-06T04:16:25;9.63;;;4.18;;
49962;SDS011;36180;57.678;11.910;2024-01-06T04:18:53;10.82;;;3.70;;
49962;SDS011;36180;57.678;11.910;2024-01-06T04:21:20;7.63;;;4.00;;
49962;SDS011;36180;57.678;11.910;2024-01-06T04:23:49;7.78;;;3.58;;
49962;SDS011;36180;57.678;11.910;2024-01-06T04:26:17;6.78;;;3.88;;
49962;SDS011;36180;57.678;11.910;2024-01-06T04:28:44;8.43;;;3.55;;
49962;SDS011;36180;57.678;11.910;2024-01-06T04:31:11;6.13;;;3.83;;
49962;SDS011;36180;57.678;11.910;2024-01-06T04:33:38;7.97;;;3.92;;
49962;SDS011;36180;57.678;11.910;2024-01-06T04:36:06;7.57;;;3.97;;
49962;SDS011;36180;57.678;11.910;2024-01-06T04:38:33;8.35;;;4.07;;
49962;SDS011;36180;57.678;11.910;2024-01-06T04:41:01;6.60;;;3.53;;
49962;SDS011;36180;57.678;11.910;2024-01-06T04:43:29;7.68;;;3.60;;
49962;SDS011;36180;57.678;11.910;2024-01-06T04:45:56;5.78;;;3.60;;
49962;SDS011;36180;57.678;11.910;2024-01-06T04:48:23;7.20;;;3.85;;
49962;SDS011;36180;57.678;11.910;2024-01-06T04:50:50;8.23;;;4.13;;
49962;SDS011;36180;57.678;11.910;2024-01-06T04:53:17;7.03;;;3.88;;
49962;SDS011;36180;57.678;11.910;2024-01-06T04:55:44;6.43;;;3.80;;
49962;SDS011;36180;57.678;11.910;2024-01-06T04:58:12;7.45;;;3.88;;
49962;SDS011;36180;57.678;11.910;2024-01-06T05:00:39;9.77;;;4.13;;
49962;SDS011;36180;57.678;11.910;2024-01-06T05:03:06;7.35;;;3.95;;
49962;SDS011;36180;57.678;11.910;2024-01-06T05:05:33;8.27;;;4.05;;
49962;SDS011;36180;57.678;11.910;2024-01-06T05:08:00;6.70;;;3.80;;
49962;SDS011;36180;57.678;11.910;2024-01-06T05:10:28;7.28;;;3.95;;
49962;SDS011;36180;57.678;11.910;2024-01-06T05:12:55;7.05;;;4.28;;
49962;SDS011;36180;57.678;11.910;2024-01-06T05:15:23;8.45;;;4.15;;
49962;SDS011;36180;57.678;11.910;2024-01-06T05:17:50;8.18;;;3.80;;
49962;SDS011;36180;57.678;11.910;2024-01-06T05:20:17;7.63;;;4.10;;
49962;SDS011;36180;57.678;11.910;2024-01-06T05:22:44;9.27;;;4.20;;
49962;SDS011;36180;57.678;11.910;2024-01-06T05:25:11;6.45;;;3.95;;
49962;SDS011;36180;57.678;11.910;2024-01-06T05:27:38;6.30;;;3.75;;
49962;SDS011;36180;57.678;11.910;2024-01-06T05:30:05;8.25;;;3.85;;
49962;SDS011;36180;57.678;11.910;2024-01-06T05:32:35;7.45;;;4.05;;
49962;SDS011;36180;57.678;11.910;2024-01-06T05:35:03;6.43;;;3.83;;
49962;SDS011;36180;57.678;11.910;2024-01-06T05:37:31;8.27;;;4.13;;
49962;SDS011;36180;57.678;11.910;2024-01-06T05:39:58;7.95;;;4.13;;
49962;SDS011;36180;57.678;11.910;2024-01-06T05:42:26;6.60;;;3.97;;
49962;SDS011;36180;57.678;11.910;2024-01-06T05:44:53;8.13;;;4.15;;
49962;SDS011;36180;57.678;11.910;2024-01-06T05:47:20;8.82;;;4.43;;
49962;SDS011;36180;57.678;11.910;2024-01-06T05:49:49;5.57;;;3.75;;
49962;SDS011;36180;57.678;11.910;2024-01-06T05:52:16;7.57;;;4.10;;
49962;SDS011;36180;57.678;11.910;2024-01-06T05:54:43;7.22;;;4.15;;
49962;SDS011;36180;57.678;11.910;2024-01-06T05:57:10;7.82;;;3.97;;
49962;SDS011;36180;57.678;11.910;2024-01-06T05:59:38;8.85;;;4.25;;
49962;SDS011;36180;57.678;11.910;2024-01-06T06:02:05;7.82;;;4.35;;
49962;SDS011;36180;57.678;11.910;2024-01-06T06:04:32;6.80;;;3.72;;
49962;SDS011;36180;57.678;11.910;2024-01-06T06:07:01;7.97;;;3.92;;
49962;SDS011;36180;57.678;11.910;2024-01-06T06:09:28;7.15;;;4.30;;
49962;SDS011;36180;57.678;11.910;2024-01-06T06:11:55;7.82;;;3.67;;
49962;SDS011;36180;57.678;11.910;2024-01-06T06:14:22;8.55;;;4.28;;
49962;SDS011;36180;57.678;11.910;2024-01-06T06:16:49;6.88;;;3.47;;
49962;SDS011;36180;57.678;11.910;2024-01-06T06:19:16;6.93;;;4.07;;
49962;SDS011;36180;57.678;11.910;2024-01-06T06:21:43;7.78;;;4.60;;
49962;SDS011;36180;57.678;11.910;2024-01-06T06:24:12;7.05;;;3.58;;
49962;SDS011;36180;57.678;11.910;2024-01-06T06:26:39;9.10;;;4.18;;
49962;SDS011;36180;57.678;11.910;2024-01-06T06:29:06;5.97;;;3.92;;
49962;SDS011;36180;57.678;11.910;2024-01-06T06:31:33;10.65;;;4.07;;
49962;SDS011;36180;57.678;11.910;2024-01-06T06:34:00;7.22;;;3.85;;
49962;SDS011;36180;57.678;11.910;2024-01-06T06:36:27;8.98;;;4.05;;
49962;SDS011;36180;57.678;11.910;2024-01-06T06:38:54;5.70;;;3.83;;
49962;SDS011;36180;57.678;11.910;2024-01-06T06:41:24;8.68;;;4.18;;
49962;SDS011;36180;57.678;11.910;2024-01-06T06:43:51;7.28;;;3.80;;
49962;SDS011;36180;57.678;11.910;2024-01-06T06:46:18;7.30;;;3.72;;
49962;SDS011;36180;57.678;11.910;2024-01-06T06:48:45;7.75;;;3.95;;
49962;SDS011;36180;57.678;11.910;2024-01-06T06:51:12;8.73;;;4.00;;
49962;SDS011;36180;57.678;11.910;2024-01-06T06:53:39;6.13;;;3.63;;
49962;SDS011;36180;57.678;11.910;2024-01-06T06:56:06;7.68;;;4.03;;
49962;SDS011;36180;57.678;11.910;2024-01-06T06:58:34;6.15;;;3.83;;
49962;SDS011;36180;57.678;11.910;2024-01-06T07:01:01;10.00;;;4.60;;
49962;SDS011;36180;57.678;11.910;2024-01-06T07:03:28;8.10;;;3.90;;
49962;SDS011;36180;57.678;11.910;2024-01-06T07:05:55;9.80;;;4.20;;
49962;SDS011;36180;57.678;11.910;2024-01-06T07:08:22;6.00;;;3.42;;
49962;SDS011;36180;57.678;11.910;2024-01-06T07:10:49;7.15;;;4.18;;
49962;SDS011;36180;57.678;11.910;2024-01-06T07:13:16;8.02;;;4.43;;
49962;SDS011;36180;57.678;11.910;2024-01-06T07:15:44;6.03;;;4.22;;
49962;SDS011;36180;57.678;11.910;2024-01-06T07:18:11;10.18;;;4.05;;
49962;SDS011;36180;57.678;11.910;2024-01-06T07:20:38;6.40;;;3.78;;
49962;SDS011;36180;57.678;11.910;2024-01-06T07:23:05;7.88;;;3.95;;
49962;SDS011;36180;57.678;11.910;2024-01-06T07:25:32;6.60;;;3.53;;
49962;SDS011;36180;57.678;11.910;2024-01-06T07:27:59;8.40;;;4.13;;
49962;SDS011;36180;57.678;11.910;2024-01-06T07:30:27;7.30;;;3.90;;
49962;SDS011;36180;57.678;11.910;2024-01-06T07:32:56;7.25;;;3.88;;
49962;SDS011;36180;57.678;11.910;2024-01-06T07:35:23;12.13;;;4.30;;
49962;SDS011;36180;57.678;11.910;2024-01-06T07:37:50;10.27;;;4.80;;
49962;SDS011;36180;57.678;11.910;2024-01-06T07:40:18;7.70;;;4.47;;
49962;SDS011;36180;57.678;11.910;2024-01-06T07:42:45;6.30;;;3.72;;
49962;SDS011;36180;57.678;11.910;2024-01-06T07:45:12;9.23;;;4.07;;
49962;SDS011;36180;57.678;11.910;2024-01-06T07:47:39;8.80;;;4.35;;
49962;SDS011;36180;57.678;11.910;2024-01-06T07:50:08;10.57;;;4.28;;
49962;SDS011;36180;57.678;11.910;2024-01-06T07:52:35;9.68;;;4.40;;
49962;SDS011;36180;57.678;11.910;2024-01-06T07:55:02;7.55;;;4.07;;
49962;SDS011;36180;57.678;11.910;2024-01-06T07:57:30;10.20;;;4.00;;
49962;SDS011;36180;57.678;11.910;2024-01-06T07:59:57;8.95;;;4.38;;
49962;SDS011;36180;57.678;11.910;2024-01-06T08:02:24;8.98;;;4.72;;
49962;SDS011;36180;57.678;11.910;2024-01-06T08:04:50;7.70;;;4.35;;
49962;SDS011;36180;57.678;11.910;2024-01-06T08:07:19;9.23;;;4.40;;
49962;SDS011;36180;57.678;11.910;2024-01-06T08:09:46;6.10;;;4.00;;
49962;SDS011;36180;57.678;11.910;2024-01-06T08:12:14;7.38;;;4.05;;
49962;SDS011;36180;57.678;11.910;2024-01-06T08:14:41;7.57;;;4.40;;
49962;SDS011;36180;57.678;11.910;2024-01-06T08:17:08;7.35;;;4.10;;
49962;SDS011;36180;57.678;11.910;2024-01-06T08:19:35;9.77;;;4.05;;
49962;SDS011;36180;57.678;11.910;2024-01-06T08:22:02;6.72;;;4.30;;
49962;SDS011;36180;57.678;11.910;2024-01-06T08:24:31;7.00;;;4.22;;
49962;SDS011;36180;57.678;11.910;2024-01-06T08:26:58;8.75;;;4.40;;
49962;SDS011;36180;57.678;11.910;2024-01-06T08:29:25;10.48;;;4.75;;
49962;SDS011;36180;57.678;11.910;2024-01-06T08:31:52;7.60;;;4.00;;
49962;SDS011;36180;57.678;11.910;2024-01-06T08:34:20;8.60;;;4.68;;
49962;SDS011;36180;57.678;11.910;2024-01-06T08:36:47;6.53;;;4.13;;
49962;SDS011;36180;57.678;11.910;2024-01-06T08:39:14;9.10;;;4.40;;
49962;SDS011;36180;57.678;11.910;2024-01-06T08:41:42;7.63;;;3.92;;
49962;SDS011;36180;57.678;11.910;2024-01-06T08:44:09;7.45;;;4.50;;
49962;SDS011;36180;57.678;11.910;2024-01-06T08:46:36;8.02;;;4.38;;
49962;SDS011;36180;57.678;11.910;2024-01-06T08:49:03;8.60;;;4.53;;
49962;SDS011;36180;57.678;11.910;2024-01-06T08:51:30;6.28;;;4.18;;
49962;SDS011;36180;57.678;11.910;2024-01-06T08:53:57;8.85;;;4.60;;
49962;SDS011;36180;57.678;11.910;2024-01-06T08:56:25;7.28;;;3.85;;
49962;SDS011;36180;57.678;11.910;2024-01-06T08:58:54;10.00;;;4.97;;
49962;SDS011;36180;57.678;11.910;2024-01-06T09:01:22;10.88;;;4.25;;
49962;SDS011;36180;57.678;11.910;2024-01-06T09:03:49;9.68;;;5.15;;
49962;SDS011;36180;57.678;11.910;2024-01-06T09:06:16;6.70;;;4.03;;
49962;SDS011;36180;57.678;11.910;2024-01-06T09:08:43;8.88;;;4.55;;
49962;SDS011;36180;57.678;11.910;2024-01-06T09:11:10;9.55;;;3.97;;
49962;SDS011;36180;57.678;11.910;2024-01-06T09:13:37;8.13;;;4.07;;
49962;SDS011;36180;57.678;11.910;2024-01-06T09:16:05;8.07;;;4.13;;
49962;SDS011;36180;57.678;11.910;2024-01-06T09:18:32;7.75;;;4.50;;
49962;SDS011;36180;57.678;11.910;2024-01-06T09:20:59;6.70;;;4.22;;
49962;SDS011;36180;57.678;11.910;2024-01-06T09:23:26;9.55;;;4.63;;
49962;SDS011;36180;57.678;11.910;2024-01-06T09:25:53;9.45;;;4.45;;
49962;SDS011;36180;57.678;11.910;2024-01-06T09:28:20;10.48;;;5.38;;
49962;SDS011;36180;57.678;11.910;2024-01-06T09:30:47;7.25;;;4.38;;
49962;SDS011;36180;57.678;11.910;2024-01-06T09:33:16;8.68;;;4.93;;
49962;SDS011;36180;57.678;11.910;2024-01-06T09:35:43;9.15;;;4.50;;
49962;SDS011;36180;57.678;11.910;2024-01-06T09:38:10;9.20;;;3.90;;
49962;SDS011;36180;57.678;11.910;2024-01-06T09:40:38;7.65;;;4.15;;
49962;SDS011;36180;57.678;11.910;2024-01-06T09:43:07;8.93;;;4.80;;
49962;SDS011;36180;57.678;11.910;2024-01-06T09:45:34;8.93;;;4.65;;
49962;SDS011;36180;57.678;11.910;2024-01-06T09:48:02;9.48;;;5.38;;
49962;SDS011;36180;57.678;11.910;2024-01-06T09:50:33;14.25;;;6.85;;
49962;SDS011;36180;57.678;11.910;2024-01-06T09:53:00;13.20;;;5.53;;
49962;SDS011;36180;57.678;11.910;2024-01-06T09:55:32;20.27;;;9.63;;
49962;SDS011;36180;57.678;11.910;2024-01-06T09:57:58;17.73;;;8.05;;
49962;SDS011;36180;57.678;11.910;2024-01-06T10:00:26;28.75;;;12.25;;
49962;SDS011;36180;57.678;11.910;2024-01-06T10:02:53;17.75;;;7.65;;
49962;SDS011;36180;57.678;11.910;2024-01-06T10:05:21;11.25;;;6.15;;
49962;SDS011;36180;57.678;11.910;2024-01-06T10:07:49;11.82;;;6.03;;
49962;SDS011;36180;57.678;11.910;2024-01-06T10:10:16;18.98;;;9.27;;
49962;SDS011;36180;57.678;11.910;2024-01-06T10:12:43;48.90;;;14.50;;
49962;SDS011;36180;57.678;11.910;2024-01-06T10:15:11;24.48;;;9.30;;
49962;SDS011;36180;57.678;11.910;2024-01-06T10:17:39;16.90;;;8.32;;
49962;SDS011;36180;57.678;11.910;2024-01-06T10:20:07;14.27;;;6.85;;
49962;SDS011;36180;57.678;11.910;2024-01-06T10:22:35;10.07;;;5.50;;
49962;SDS011;36180;57.678;11.910;2024-01-06T10:25:04;21.58;;;9.75;;
49962;SDS011;36180;57.678;11.910;2024-01-06T10:27:31;12.80;;;6.80;;
49962;SDS011;36180;57.678;11.910;2024-01-06T10:30:00;12.98;;;6.30;;
49962;SDS011;36180;57.678;11.910;2024-01-06T10:32:30;13.30;;;7.38;;
49962;SDS011;36180;57.678;11.910;2024-01-06T10:34:57;12.73;;;6.90;;
49962;SDS011;36180;57.678;11.910;2024-01-06T10:37:25;13.10;;;6.57;;
49962;SDS011;36180;57.678;11.910;2024-01-06T10:40:06;14.25;;;7.43;;
49962;SDS011;36180;57.678;11.910;2024-01-06T10:42:33;8.25;;;4.85;;
49962;SDS011;36180;57.678;11.910;2024-01-06T10:45:01;7.43;;;4.45;;
49962;SDS011;36180;57.678;11.910;2024-01-06T10:47:29;7.10;;;4.18;;
49962;SDS011;36180;57.678;11.910;2024-01-06T10:49:57;5.55;;;4.35;;
49962;SDS011;36180;57.678;11.910;2024-01-06T10:52:25;8.00;;;3.88;;
49962;SDS011;36180;57.678;11.910;2024-01-06T10:54:54;12.35;;;5.78;;
49962;SDS011;36180;57.678;11.910;2024-01-06T10:57:23;9.45;;;4.47;;
49962;SDS011;36180;57.678;11.910;2024-01-06T10:59:51;9.02;;;4.70;;
49962;SDS011;36180;57.678;11.910;2024-01-06T11:02:18;7.43;;;4.40;;
49962;SDS011;36180;57.678;11.910;2024-01-06T11:04:46;6.85;;;3.60;;
49962;SDS011;36180;57.678;11.910;2024-01-06T11:07:13;7.28;;;4.75;;
49962;SDS011;36180;57.678;11.910;2024-01-06T11:09:43;7.80;;;4.10;;
49962;SDS011;36180;57.678;11.910;2024-01-06T11:12:13;5.80;;;3.78;;
49962;SDS011;36180;57.678;11.910;2024-01-06T11:14:42;7.88;;;4.68;;
49962;SDS011;36180;57.678;11.910;2024-01-06T11:17:11;7.50;;;4.05;;
49962;SDS011;36180;57.678;11.910;2024-01-06T11:19:44;12.43;;;4.05;;
49962;SDS011;36180;57.678;11.910;2024-01-06T11:24:54;5.50;;;3.63;;
49962;SDS011;36180;57.678;11.910;2024-01-06T11:27:22;4.88;;;3.20;;
49962;SDS011;36180;57.678;11.910;2024-01-06T11:29:53;5.00;;;3.35;;
49962;SDS011;36180;57.678;11.910;2024-01-06T11:32:21;6.00;;;3.50;;
49962;SDS011;36180;57.678;11.910;2024-01-06T11:34:52;6.30;;;3.83;;
49962;SDS011;36180;57.678;11.910;2024-01-06T11:37:24;5.20;;;3.60;;
49962;SDS011;36180;57.678;11.910;2024-01-06T11:39:55;5.35;;;3.05;;
49962;SDS011;36180;57.678;11.910;2024-01-06T11:42:22;6.75;;;3.58;;
49962;SDS011;36180;57.678;11.910;2024-01-06T11:45:02;5.55;;;3.63;;
49962;SDS011;36180;57.678;11.910;2024-01-06T11:47:31;8.35;;;4.15;;
49962;SDS011;36180;57.678;11.910;2024-01-06T11:49:58;6.57;;;3.95;;
49962;SDS011;36180;57.678;11.910;2024-01-06T11:52:29;8.25;;;4.60;;
49962;SDS011;36180;57.678;11.910;2024-01-06T11:54:56;6.00;;;3.80;;
49962;SDS011;36180;57.678;11.910;2024-01-06T11:57:24;8.18;;;4.38;;
49962;SDS011;36180;57.678;11.910;2024-01-06T11:59:51;6.35;;;3.95;;
49962;SDS011;36180;57.678;11.910;2024-01-06T12:02:20;8.05;;;4.55;;
49962;SDS011;36180;57.678;11.910;2024-01-06T12:04:48;6.03;;;3.70;;
49962;SDS011;36180;57.678;11.910;2024-01-06T12:07:16;5.53;;;3.50;;
49962;SDS011;36180;57.678;11.910;2024-01-06T12:09:44;6.82;;;4.05;;
49962;SDS011;36180;57.678;11.910;2024-01-06T12:12:12;5.93;;;3.90;;
49962;SDS011;36180;57.678;11.910;2024-01-06T12:14:41;5.95;;;4.05;;
49962;SDS011;36180;57.678;11.910;2024-01-06T12:17:09;7.35;;;4.13;;
49962;SDS011;36180;57.678;11.910;2024-01-06T12:19:37;7.32;;;3.80;;
49962;SDS011;36180;57.678;11.910;2024-01-06T12:22:05;5.53;;;3.95;;
49962;SDS011;36180;57.678;11.910;2024-01-06T12:24:32;6.50;;;3.83;;
49962;SDS011;36180;57.678;11.910;2024-01-06T12:26:59;5.60;;;4.00;;
49962;SDS011;36180;57.678;11.910;2024-01-06T12:29:26;6.95;;;4.30;;
49962;SDS011;36180;57.678;11.910;2024-01-06T12:31:54;7.35;;;4.18;;
49962;SDS011;36180;57.678;11.910;2024-01-06T12:34:21;8.43;;;4.40;;
49962;SDS011;36180;57.678;11.910;2024-01-06T12:36:51;7.72;;;4.95;;
49962;SDS011;36180;57.678;11.910;2024-01-06T12:39:20;8.48;;;5.28;;
49962;SDS011;36180;57.678;11.910;2024-01-06T12:41:48;10.02;;;4.82;;
49962;SDS011;36180;57.678;11.910;2024-01-06T12:44:17;6.53;;;4.25;;
49962;SDS011;36180;57.678;11.910;2024-01-06T12:46:44;9.40;;;4.70;;
49962;SDS011;36180;57.678;11.910;2024-01-06T12:49:11;6.05;;;4.32;;
49962;SDS011;36180;57.678;11.910;2024-01-06T12:51:38;8.63;;;4.45;;
49962;SDS011;36180;57.678;11.910;2024-01-06T12:54:06;9.45;;;5.28;;
49962;SDS011;36180;57.678;11.910;2024-01-06T12:56:33;10.80;;;5.15;;
49962;SDS011;36180;57.678;11.910;2024-01-06T12:59:00;8.93;;;4.50;;
49962;SDS011;36180;57.678;11.910;2024-01-06T13:01:27;8.13;;;4.85;;
49962;SDS011;36180;57.678;11.910;2024-01-06T13:03:54;8.30;;;4.65;;
49962;SDS011;36180;57.678;11.910;2024-01-06T13:06:24;9.35;;;4.65;;
49962;SDS011;36180;57.678;11.910;2024-01-06T13:08:51;8.05;;;4.80;;
49962;SDS011;36180;57.678;11.910;2024-01-06T13:11:20;8.00;;;5.00;;
49962;SDS011;36180;57.678;11.910;2024-01-06T13:13:47;6.93;;;4.68;;
49962;SDS011;36180;57.678;11.910;2024-01-06T13:16:14;8.98;;;5.07;;
49962;SDS011;36180;57.678;11.910;2024-01-06T13:18:41;7.93;;;5.07;;
49962;SDS011;36180;57.678;11.910;2024-01-06T13:21:08;10.45;;;5.13;;
49962;SDS011;36180;57.678;11.910;2024-01-06T13:23:35;10.02;;;5.53;;
49962;SDS011;36180;57.678;11.910;2024-01-06T13:26:01;9.35;;;5.32;;
49962;SDS011;36180;57.678;11.910;2024-01-06T13:28:30;12.43;;;5.25;;
49962;SDS011;36180;57.678;11.910;2024-01-06T13:30:57;8.55;;;4.97;;
49962;SDS011;36180;57.678;11.910;2024-01-06T13:33:24;8.10;;;4.68;;
49962;SDS011;36180;57.678;11.910;2024-01-06T13:35:51;10.75;;;5.15;;
49962;SDS011;36180;57.678;11.910;2024-01-06T13:38:18;7.10;;;4.22;;
49962;SDS011;36180;57.678;11.910;2024-01-06T13:40:45;8.85;;;5.05;;
49962;SDS011;36180;57.678;11.910;2024-01-06T13:43:12;11.32;;;5.00;;
49962;SDS011;36180;57.678;11.910;2024-01-06T13:45:42;7.03;;;4.50;;
49962;SDS011;36180;57.678;11.910;2024-01-06T13:48:10;9.02;;;4.82;;
49962;SDS011;36180;57.678;11.910;2024-01-06T13:50:37;9.07;;;4.82;;
49962;SDS011;36180;57.678;11.910;2024-01-06T13:53:04;7.70;;;4.70;;
49962;SDS011;36180;57.678;11.910;2024-01-06T13:55:32;5.85;;;4.28;;
49962;SDS011;36180;57.678;11.910;2024-01-06T13:58:00;6.88;;;4.22;;
49962;SDS011;36180;57.678;11.910;2024-01-06T14:00:27;9.35;;;4.55;;
49962;SDS011;36180;57.678;11.910;2024-01-06T14:02:55;7.90;;;4.38;;
49962;SDS011;36180;57.678;11.910;2024-01-06T14:05:22;6.03;;;4.32;;
49962;SDS011;36180;57.678;11.910;2024-01-06T14:07:49;7.75;;;4.82;;
49962;SDS011;36180;57.678;11.910;2024-01-06T14:10:16;7.72;;;4.60;;
49962;SDS011;36180;57.678;11.910;2024-01-06T14:12:43;7.68;;;4.30;;
49962;SDS011;36180;57.678;11.910;2024-01-06T14:15:10;7.57;;;4.93;;
49962;SDS011;36180;57.678;11.910;2024-01-06T14:17:37;8.27;;;4.85;;
49962;SDS011;36180;57.678;11.910;2024-01-06T14:20:07;9.50;;;5.35;;
49962;SDS011;36180;57.678;11.910;2024-01-06T14:25:04;9.50;;;4.57;;
49962;SDS011;36180;57.678;11.910;2024-01-06T14:27:32;9.73;;;5.57;;
49962;SDS011;36180;57.678;11.910;2024-01-06T14:29:59;8.48;;;4.80;;
49962;SDS011;36180;57.678;11.910;2024-01-06T14:32:26;8.07;;;4.60;;
49962;SDS011;36180;57.678;11.910;2024-01-06T14:34:54;7.05;;;4.82;;
49962;SDS011;36180;57.678;11.910;2024-01-06T14:37:32;8.45;;;4.43;;
49962;SDS011;36180;57.678;11.910;2024-01-06T14:39:58;8.85;;;4.88;;